sensor_id;sensor_type;location;lat;lon;timestamp;pressure;altitude;pressure_sealevel;temperature;humidity
84224;BME280;74353;51.208;0.304;2024-03-06T00:00:16;101638.83;;;7.83;50.21
84224;BME280;74353;51.208;0.304;2024-03-06T00:02:41;101639.82;;;7.75;50.39
84224;BME280;74353;51.208;0.304;2024-03-06T00:05:07;101638.80;;;7.75;50.45
84224;BME280;74353;51.208;0.304;2024-03-06T00:07:33;101643.62;;;7.81;50.19
84224;BME280;74353;51.208;0.304;2024-03-06T00:09:58;101642.78;;;7.80;50.30
84224;BME280;74353;51.208;0.304;2024-03-06T00:12:24;101646.85;;;7.46;50.34
84224;BME280;74353;51.208;0.304;2024-03-06T00:14:49;101645.53;;;7.60;50.13
84224;BME280;74353;51.208;0.304;2024-03-06T00:17:14;101645.60;;;7.83;50.17
84224;BME280;74353;51.208;0.304;2024-03-06T00:19:43;101646.94;;;7.70;50.21
84224;BME280;74353;51.208;0.304;2024-03-06T00:22:10;101648.79;;;7.84;49.91
84224;BME280;74353;51.208;0.304;2024-03-06T00:24:37;101651.03;;;7.71;50.17
84224;BME280;74353;51.208;0.304;2024-03-06T00:27:05;101655.82;;;7.59;50.31
84224;BME280;74353;51.208;0.304;2024-03-06T00:29:31;101653.76;;;7.52;50.30
84224;BME280;74353;51.208;0.304;2024-03-06T00:31:58;101660.39;;;7.68;50.00
84224;BME280;74353;51.208;0.304;2024-03-06T00:34:25;101664.64;;;7.59;49.99
84224;BME280;74353;51.208;0.304;2024-03-06T00:36:51;101665.83;;;7.54;50.06
84224;BME280;74353;51.208;0.304;2024-03-06T00:39:19;101664.78;;;7.82;50.11
84224;BME280;74353;51.208;0.304;2024-03-06T00:41:47;101665.27;;;7.70;49.52
84224;BME280;74353;51.208;0.304;2024-03-06T00:44:15;101670.12;;;7.48;49.76
84224;BME280;74353;51.208;0.304;2024-03-06T00:46:41;101670.95;;;7.17;49.74
84224;BME280;74353;51.208;0.304;2024-03-06T00:49:06;101674.29;;;7.48;49.57
84224;BME280;74353;51.208;0.304;2024-03-06T00:51:33;101676.88;;;7.39;49.97
84224;BME280;74353;51.208;0.304;2024-03-06T00:53:58;101678.61;;;7.25;49.82
84224;BME280;74353;51.208;0.304;2024-03-06T00:56:24;101680.74;;;7.42;49.85
84224;BME280;74353;51.208;0.304;2024-03-06T00:58:50;101685.93;;;7.20;49.77
84224;BME280;74353;51.208;0.304;2024-03-06T01:01:16;101686.36;;;7.27;50.20
84224;BME280;74353;51.208;0.304;2024-03-06T01:03:40;101686.77;;;7.11;50.08
84224;BME280;74353;51.208;0.304;2024-03-06T01:06:05;101690.40;;;7.63;50.00
84224;BME280;74353;51.208;0.304;2024-03-06T01:08:33;101687.83;;;7.14;49.94
84224;BME280;74353;51.208;0.304;2024-03-06T01:10:58;101685.53;;;7.11;49.81
84224;BME280;74353;51.208;0.304;2024-03-06T01:13:26;101683.68;;;6.99;49.97
84224;BME280;74353;51.208;0.304;2024-03-06T01:15:52;101684.58;;;7.16;49.93
84224;BME280;74353;51.208;0.304;2024-03-06T01:18:17;101687.29;;;6.87;49.75
84224;BME280;74353;51.208;0.304;2024-03-06T01:20:44;101687.71;;;6.97;49.64
84224;BME280;74353;51.208;0.304;2024-03-06T01:23:10;101686.20;;;7.11;49.67
84224;BME280;74353;51.208;0.304;2024-03-06T01:25:37;101689.37;;;7.06;49.64
84224;BME280;74353;51.208;0.304;2024-03-06T01:28:03;101692.39;;;7.25;49.67
84224;BME280;74353;51.208;0.304;2024-03-06T01:30:30;101693.13;;;7.21;49.64
84224;BME280;74353;51.208;0.304;2024-03-06T01:32:58;101692.91;;;7.19;49.56
84224;BME280;74353;51.208;0.304;2024-03-06T01:35:25;101693.62;;;6.97;49.53
84224;BME280;74353;51.208;0.304;2024-03-06T01:37:56;101693.53;;;6.66;49.59
84224;BME280;74353;51.208;0.304;2024-03-06T01:40:22;101692.74;;;6.76;49.81
84224;BME280;74353;51.208;0.304;2024-03-06T01:42:47;101695.16;;;6.85;49.55
84224;BME280;74353;51.208;0.304;2024-03-06T01:45:13;101693.20;;;7.07;49.65
84224;BME280;74353;51.208;0.304;2024-03-06T01:47:41;101691.20;;;6.62;50.03
84224;BME280;74353;51.208;0.304;2024-03-06T01:50:07;101695.84;;;6.85;50.01
84224;BME280;74353;51.208;0.304;2024-03-06T01:52:31;101698.03;;;6.69;49.93
84224;BME280;74353;51.208;0.304;2024-03-06T01:54:59;101700.10;;;6.85;50.06
84224;BME280;74353;51.208;0.304;2024-03-06T01:57:24;101704.13;;;6.90;50.00
84224;BME280;74353;51.208;0.304;2024-03-06T01:59:49;101702.75;;;6.94;50.08
84224;BME280;74353;51.208;0.304;2024-03-06T02:02:17;101701.40;;;6.94;50.15
84224;BME280;74353;51.208;0.304;2024-03-06T02:04:43;101700.74;;;7.02;50.24
84224;BME280;74353;51.208;0.304;2024-03-06T02:07:10;101699.62;;;7.03;50.40
84224;BME280;74353;51.208;0.304;2024-03-06T02:09:38;101700.78;;;6.76;50.64
84224;BME280;74353;51.208;0.304;2024-03-06T02:12:05;101701.02;;;6.85;50.72
84224;BME280;74353;51.208;0.304;2024-03-06T02:14:29;101702.44;;;7.07;50.94
84224;BME280;74353;51.208;0.304;2024-03-06T02:16:55;101705.65;;;7.17;50.83
84224;BME280;74353;51.208;0.304;2024-03-06T02:19:21;101706.96;;;7.19;50.95
84224;BME280;74353;51.208;0.304;2024-03-06T02:21:49;101711.25;;;7.02;51.39
84224;BME280;74353;51.208;0.304;2024-03-06T02:24:17;101710.80;;;7.11;50.98
84224;BME280;74353;51.208;0.304;2024-03-06T02:26:42;101707.69;;;6.62;51.22
84224;BME280;74353;51.208;0.304;2024-03-06T02:29:09;101704.15;;;7.09;51.20
84224;BME280;74353;51.208;0.304;2024-03-06T02:31:36;101703.31;;;7.13;51.16
84224;BME280;74353;51.208;0.304;2024-03-06T02:34:01;101700.34;;;7.00;50.97
84224;BME280;74353;51.208;0.304;2024-03-06T02:36:27;101698.44;;;6.77;50.80
84224;BME280;74353;51.208;0.304;2024-03-06T02:38:53;101692.14;;;7.14;50.60
84224;BME280;74353;51.208;0.304;2024-03-06T02:41:21;101692.08;;;6.97;50.95
84224;BME280;74353;51.208;0.304;2024-03-06T02:43:46;101689.97;;;6.75;50.93
84224;BME280;74353;51.208;0.304;2024-03-06T02:46:12;101688.21;;;7.00;50.88
84224;BME280;74353;51.208;0.304;2024-03-06T02:48:40;101687.47;;;6.74;50.82
84224;BME280;74353;51.208;0.304;2024-03-06T02:51:05;101687.88;;;7.13;51.01
84224;BME280;74353;51.208;0.304;2024-03-06T02:53:31;101684.33;;;7.23;50.94
84224;BME280;74353;51.208;0.304;2024-03-06T02:55:57;101683.54;;;6.66;51.24
84224;BME280;74353;51.208;0.304;2024-03-06T02:58:23;101683.83;;;6.99;50.97
84224;BME280;74353;51.208;0.304;2024-03-06T03:00:50;101682.77;;;7.04;51.22
84224;BME280;74353;51.208;0.304;2024-03-06T03:03:18;101682.68;;;7.22;50.87
84224;BME280;74353;51.208;0.304;2024-03-06T03:05:45;101681.11;;;6.96;50.77
84224;BME280;74353;51.208;0.304;2024-03-06T03:08:11;101680.03;;;6.84;50.52
84224;BME280;74353;51.208;0.304;2024-03-06T03:10:38;101681.54;;;7.26;50.46
84224;BME280;74353;51.208;0.304;2024-03-06T03:13:04;101685.44;;;6.93;50.62
84224;BME280;74353;51.208;0.304;2024-03-06T03:15:31;101688.59;;;7.09;50.72
84224;BME280;74353;51.208;0.304;2024-03-06T03:17:56;101688.39;;;7.24;50.40
84224;BME280;74353;51.208;0.304;2024-03-06T03:20:23;101690.03;;;6.87;50.48
84224;BME280;74353;51.208;0.304;2024-03-06T03:22:48;101689.51;;;6.77;50.36
84224;BME280;74353;51.208;0.304;2024-03-06T03:25:13;101688.49;;;6.99;50.35
84224;BME280;74353;51.208;0.304;2024-03-06T03:27:40;101688.27;;;6.74;50.17
84224;BME280;74353;51.208;0.304;2024-03-06T03:30:08;101689.20;;;6.87;50.31
84224;BME280;74353;51.208;0.304;2024-03-06T03:32:31;101687.29;;;6.92;50.44
84224;BME280;74353;51.208;0.304;2024-03-06T03:34:56;101692.29;;;6.58;50.53
84224;BME280;74353;51.208;0.304;2024-03-06T03:37:23;101694.25;;;6.91;50.49
84224;BME280;74353;51.208;0.304;2024-03-06T03:39:50;101697.19;;;6.87;50.44
84224;BME280;74353;51.208;0.304;2024-03-06T03:42:17;101697.82;;;6.50;50.53
84224;BME280;74353;51.208;0.304;2024-03-06T03:44:42;101696.71;;;6.57;50.35
84224;BME280;74353;51.208;0.304;2024-03-06T03:47:08;101692.95;;;6.79;50.53
84224;BME280;74353;51.208;0.304;2024-03-06T03:49:34;101695.68;;;6.88;50.55
84224;BME280;74353;51.208;0.304;2024-03-06T03:52:00;101694.81;;;6.64;50.71
84224;BME280;74353;51.208;0.304;2024-03-06T03:54:27;101695.82;;;6.29;50.75
84224;BME280;74353;51.208;0.304;2024-03-06T03:56:53;101696.68;;;6.49;50.72
84224;BME280;74353;51.208;0.304;2024-03-06T03:59:19;101698.29;;;6.79;50.17
84224;BME280;74353;51.208;0.304;2024-03-06T04:01:45;101703.19;;;6.34;50.31
84224;BME280;74353;51.208;0.304;2024-03-06T04:04:10;101702.38;;;6.61;49.92
84224;BME280;74353;51.208;0.304;2024-03-06T04:06:35;101700.83;;;6.45;49.99
84224;BME280;74353;51.208;0.304;2024-03-06T04:09:01;101701.31;;;6.42;50.10
84224;BME280;74353;51.208;0.304;2024-03-06T04:11:26;101700.37;;;6.48;50.18
84224;BME280;74353;51.208;0.304;2024-03-06T04:13:55;101702.83;;;6.55;50.08
84224;BME280;74353;51.208;0.304;2024-03-06T04:16:20;101702.77;;;6.51;50.22
84224;BME280;74353;51.208;0.304;2024-03-06T04:18:47;101706.81;;;6.39;50.24
84224;BME280;74353;51.208;0.304;2024-03-06T04:21:13;101708.03;;;6.22;50.44
84224;BME280;74353;51.208;0.304;2024-03-06T04:23:39;101711.76;;;6.22;50.32
84224;BME280;74353;51.208;0.304;2024-03-06T04:26:07;101717.02;;;6.18;50.19
84224;BME280;74353;51.208;0.304;2024-03-06T04:28:34;101719.51;;;6.22;50.19
84224;BME280;74353;51.208;0.304;2024-03-06T04:31:01;101721.69;;;6.15;50.12
84224;BME280;74353;51.208;0.304;2024-03-06T04:33:26;101717.63;;;6.16;50.45
84224;BME280;74353;51.208;0.304;2024-03-06T04:35:54;101717.94;;;6.22;50.16
84224;BME280;74353;51.208;0.304;2024-03-06T04:38:20;101723.10;;;6.30;50.14
84224;BME280;74353;51.208;0.304;2024-03-06T04:40:45;101724.82;;;6.03;50.90
84224;BME280;74353;51.208;0.304;2024-03-06T04:43:11;101731.19;;;6.45;50.76
84224;BME280;74353;51.208;0.304;2024-03-06T04:45:37;101736.37;;;6.46;50.90
84224;BME280;74353;51.208;0.304;2024-03-06T04:48:03;101738.96;;;6.14;51.11
84224;BME280;74353;51.208;0.304;2024-03-06T04:50:28;101739.64;;;6.34;51.20
84224;BME280;74353;51.208;0.304;2024-03-06T04:52:54;101741.87;;;6.17;51.12
84224;BME280;74353;51.208;0.304;2024-03-06T04:55:19;101742.67;;;6.20;51.27
84224;BME280;74353;51.208;0.304;2024-03-06T04:57:45;101748.44;;;6.34;51.06
84224;BME280;74353;51.208;0.304;2024-03-06T05:00:13;101750.36;;;6.33;51.26
84224;BME280;74353;51.208;0.304;2024-03-06T05:02:38;101746.72;;;6.16;51.54
84224;BME280;74353;51.208;0.304;2024-03-06T05:05:04;101746.73;;;6.66;51.18
84224;BME280;74353;51.208;0.304;2024-03-06T05:07:29;101743.83;;;6.24;51.63
84224;BME280;74353;51.208;0.304;2024-03-06T05:09:56;101749.86;;;6.37;51.51
84224;BME280;74353;51.208;0.304;2024-03-06T05:12:21;101751.54;;;6.47;51.33
84224;BME280;74353;51.208;0.304;2024-03-06T05:14:46;101753.52;;;6.30;51.55
84224;BME280;74353;51.208;0.304;2024-03-06T05:17:14;101753.14;;;6.30;51.44
84224;BME280;74353;51.208;0.304;2024-03-06T05:19:40;101755.67;;;6.40;51.49
84224;BME280;74353;51.208;0.304;2024-03-06T05:22:05;101759.11;;;6.42;51.70
84224;BME280;74353;51.208;0.304;2024-03-06T05:24:33;101764.47;;;6.51;51.55
84224;BME280;74353;51.208;0.304;2024-03-06T05:26:58;101767.45;;;6.44;51.77
84224;BME280;74353;51.208;0.304;2024-03-06T05:29:24;101769.35;;;6.26;51.81
84224;BME280;74353;51.208;0.304;2024-03-06T05:31:50;101771.20;;;6.68;51.59
84224;BME280;74353;51.208;0.304;2024-03-06T05:34:16;101771.99;;;6.50;51.99
84224;BME280;74353;51.208;0.304;2024-03-06T05:36:45;101775.53;;;6.25;52.03
84224;BME280;74353;51.208;0.304;2024-03-06T05:39:10;101780.93;;;6.60;51.83
84224;BME280;74353;51.208;0.304;2024-03-06T05:41:44;101786.28;;;6.30;51.96
84224;BME280;74353;51.208;0.304;2024-03-06T05:44:11;101788.25;;;6.62;51.96
84224;BME280;74353;51.208;0.304;2024-03-06T05:46:37;101791.22;;;6.68;51.78
84224;BME280;74353;51.208;0.304;2024-03-06T05:49:05;101790.64;;;6.59;51.95
84224;BME280;74353;51.208;0.304;2024-03-06T05:51:31;101787.59;;;6.79;52.05
84224;BME280;74353;51.208;0.304;2024-03-06T05:53:58;101784.68;;;6.85;51.59
84224;BME280;74353;51.208;0.304;2024-03-06T05:56:24;101785.99;;;6.68;51.93
84224;BME280;74353;51.208;0.304;2024-03-06T05:58:51;101789.78;;;6.62;51.98
84224;BME280;74353;51.208;0.304;2024-03-06T06:01:17;101793.32;;;6.72;51.82
84224;BME280;74353;51.208;0.304;2024-03-06T06:03:44;101797.26;;;6.76;51.80
84224;BME280;74353;51.208;0.304;2024-03-06T06:06:11;101801.63;;;6.74;51.84
84224;BME280;74353;51.208;0.304;2024-03-06T06:08:37;101802.38;;;6.51;51.78
84224;BME280;74353;51.208;0.304;2024-03-06T06:11:03;101806.01;;;6.66;51.98
84224;BME280;74353;51.208;0.304;2024-03-06T06:13:29;101804.64;;;6.85;51.67
84224;BME280;74353;51.208;0.304;2024-03-06T06:15:57;101803.35;;;6.69;51.93
84224;BME280;74353;51.208;0.304;2024-03-06T06:18:20;101804.71;;;6.76;51.79
84224;BME280;74353;51.208;0.304;2024-03-06T06:20:45;101809.02;;;6.44;51.93
84224;BME280;74353;51.208;0.304;2024-03-06T06:23:10;101812.31;;;6.89;51.59
84224;BME280;74353;51.208;0.304;2024-03-06T06:25:41;101819.53;;;6.90;51.70
84224;BME280;74353;51.208;0.304;2024-03-06T06:28:05;101822.09;;;6.79;51.78
84224;BME280;74353;51.208;0.304;2024-03-06T06:30:31;101821.71;;;6.51;51.91
84224;BME280;74353;51.208;0.304;2024-03-06T06:32:56;101824.18;;;6.79;51.91
84224;BME280;74353;51.208;0.304;2024-03-06T06:35:23;101828.97;;;6.97;51.52
84224;BME280;74353;51.208;0.304;2024-03-06T06:37:50;101825.07;;;6.63;51.84
84224;BME280;74353;51.208;0.304;2024-03-06T06:40:19;101826.02;;;6.88;51.88
84224;BME280;74353;51.208;0.304;2024-03-06T06:42:45;101828.20;;;6.88;51.92
84224;BME280;74353;51.208;0.304;2024-03-06T06:45:13;101831.76;;;6.78;52.18
84224;BME280;74353;51.208;0.304;2024-03-06T06:47:45;101839.74;;;7.00;51.80
84224;BME280;74353;51.208;0.304;2024-03-06T06:50:09;101845.40;;;6.91;52.06
84224;BME280;74353;51.208;0.304;2024-03-06T06:52:36;101852.13;;;6.94;52.10
84224;BME280;74353;51.208;0.304;2024-03-06T06:55:03;101853.54;;;6.79;51.85
84224;BME280;74353;51.208;0.304;2024-03-06T06:57:27;101852.49;;;7.07;51.93
84224;BME280;74353;51.208;0.304;2024-03-06T06:59:53;101852.42;;;7.08;52.04
84224;BME280;74353;51.208;0.304;2024-03-06T07:02:22;101854.79;;;7.01;52.24
84224;BME280;74353;51.208;0.304;2024-03-06T07:04:48;101853.71;;;7.17;52.05
84224;BME280;74353;51.208;0.304;2024-03-06T07:07:14;101858.61;;;7.02;52.06
84224;BME280;74353;51.208;0.304;2024-03-06T07:09:41;101863.95;;;6.93;52.26
84224;BME280;74353;51.208;0.304;2024-03-06T07:12:07;101870.83;;;7.02;52.27
84224;BME280;74353;51.208;0.304;2024-03-06T07:14:34;101877.29;;;7.29;52.36
84224;BME280;74353;51.208;0.304;2024-03-06T07:16:59;101881.96;;;7.30;52.48
84224;BME280;74353;51.208;0.304;2024-03-06T07:19:26;101885.44;;;7.16;52.39
84224;BME280;74353;51.208;0.304;2024-03-06T07:21:55;101894.98;;;6.98;52.23
84224;BME280;74353;51.208;0.304;2024-03-06T07:24:20;101893.76;;;7.16;52.53
84224;BME280;74353;51.208;0.304;2024-03-06T07:26:46;101898.62;;;6.97;52.43
84224;BME280;74353;51.208;0.304;2024-03-06T07:29:12;101897.01;;;7.06;52.35
84224;BME280;74353;51.208;0.304;2024-03-06T07:31:40;101899.69;;;7.31;52.43
84224;BME280;74353;51.208;0.304;2024-03-06T07:34:07;101901.11;;;7.60;52.28
84224;BME280;74353;51.208;0.304;2024-03-06T07:36:31;101902.36;;;7.27;52.59
84224;BME280;74353;51.208;0.304;2024-03-06T07:38:57;101905.69;;;7.14;52.37
84224;BME280;74353;51.208;0.304;2024-03-06T07:41:23;101905.37;;;7.39;52.43
84224;BME280;74353;51.208;0.304;2024-03-06T07:43:50;101905.78;;;7.10;52.67
84224;BME280;74353;51.208;0.304;2024-03-06T07:46:18;101909.91;;;7.57;52.20
84224;BME280;74353;51.208;0.304;2024-03-06T07:48:43;101913.05;;;7.28;52.39
84224;BME280;74353;51.208;0.304;2024-03-06T07:51:11;101912.41;;;7.54;52.27
84224;BME280;74353;51.208;0.304;2024-03-06T07:53:37;101911.63;;;7.21;52.46
84224;BME280;74353;51.208;0.304;2024-03-06T07:56:03;101915.02;;;7.38;52.69
84224;BME280;74353;51.208;0.304;2024-03-06T07:58:29;101918.45;;;7.37;52.28
84224;BME280;74353;51.208;0.304;2024-03-06T08:00:56;101920.22;;;7.28;52.55
84224;BME280;74353;51.208;0.304;2024-03-06T08:03:24;101923.00;;;7.44;52.36
84224;BME280;74353;51.208;0.304;2024-03-06T08:05:51;101925.68;;;7.26;52.37
84224;BME280;74353;51.208;0.304;2024-03-06T08:08:17;101928.87;;;7.33;52.28
84224;BME280;74353;51.208;0.304;2024-03-06T08:10:45;101931.75;;;7.72;52.42
84224;BME280;74353;51.208;0.304;2024-03-06T08:13:11;101929.36;;;7.60;52.23
84224;BME280;74353;51.208;0.304;2024-03-06T08:15:37;101934.48;;;7.81;52.51
84224;BME280;74353;51.208;0.304;2024-03-06T08:18:06;101935.26;;;7.62;52.50
84224;BME280;74353;51.208;0.304;2024-03-06T08:20:33;101936.58;;;7.62;52.49
84224;BME280;74353;51.208;0.304;2024-03-06T08:22:58;101938.21;;;7.54;52.24
84224;BME280;74353;51.208;0.304;2024-03-06T08:25:24;101934.06;;;7.70;52.26
84224;BME280;74353;51.208;0.304;2024-03-06T08:27:50;101936.39;;;7.67;52.45
84224;BME280;74353;51.208;0.304;2024-03-06T08:30:16;101938.13;;;7.69;52.63
84224;BME280;74353;51.208;0.304;2024-03-06T08:32:41;101942.93;;;7.80;52.55
84224;BME280;74353;51.208;0.304;2024-03-06T08:35:09;101945.28;;;7.83;52.59
84224;BME280;74353;51.208;0.304;2024-03-06T08:37:32;101944.85;;;7.55;52.63
84224;BME280;74353;51.208;0.304;2024-03-06T08:39:58;101947.86;;;7.84;52.57
84224;BME280;74353;51.208;0.304;2024-03-06T08:42:24;101952.68;;;7.96;52.49
84224;BME280;74353;51.208;0.304;2024-03-06T08:44:49;101955.12;;;7.70;52.68
84224;BME280;74353;51.208;0.304;2024-03-06T08:47:14;101957.51;;;8.15;52.29
84224;BME280;74353;51.208;0.304;2024-03-06T08:49:42;101956.76;;;8.02;52.64
84224;BME280;74353;51.208;0.304;2024-03-06T08:52:08;101961.52;;;8.15;52.45
84224;BME280;74353;51.208;0.304;2024-03-06T08:54:34;101963.54;;;8.14;52.61
84224;BME280;74353;51.208;0.304;2024-03-06T08:57:04;101967.56;;;8.21;52.58
84224;BME280;74353;51.208;0.304;2024-03-06T08:59:31;101969.57;;;8.21;52.51
84224;BME280;74353;51.208;0.304;2024-03-06T09:01:57;101973.45;;;8.36;52.46
84224;BME280;74353;51.208;0.304;2024-03-06T09:04:23;101973.83;;;8.00;52.77
84224;BME280;74353;51.208;0.304;2024-03-06T09:06:50;101974.18;;;7.91;52.52
84224;BME280;74353;51.208;0.304;2024-03-06T09:09:18;101975.05;;;8.41;52.55
84224;BME280;74353;51.208;0.304;2024-03-06T09:11:44;101975.11;;;7.98;52.62
84224;BME280;74353;51.208;0.304;2024-03-06T09:14:12;101976.58;;;7.93;52.88
84224;BME280;74353;51.208;0.304;2024-03-06T09:16:37;101977.52;;;8.13;52.59
84224;BME280;74353;51.208;0.304;2024-03-06T09:19:05;101976.42;;;8.54;52.91
84224;BME280;74353;51.208;0.304;2024-03-06T09:21:33;101977.17;;;8.49;52.66
84224;BME280;74353;51.208;0.304;2024-03-06T09:23:58;101978.42;;;8.31;52.75
84224;BME280;74353;51.208;0.304;2024-03-06T09:26:24;101979.31;;;8.57;52.76
84224;BME280;74353;51.208;0.304;2024-03-06T09:28:50;101981.89;;;8.37;53.11
84224;BME280;74353;51.208;0.304;2024-03-06T09:31:15;101979.74;;;8.48;52.82
84224;BME280;74353;51.208;0.304;2024-03-06T09:33:41;101981.49;;;8.47;53.01
84224;BME280;74353;51.208;0.304;2024-03-06T09:36:10;101983.11;;;8.89;52.70
84224;BME280;74353;51.208;0.304;2024-03-06T09:38:32;101982.78;;;8.56;52.96
84224;BME280;74353;51.208;0.304;2024-03-06T09:40:58;101983.03;;;8.60;52.79
84224;BME280;74353;51.208;0.304;2024-03-06T09:43:23;101984.33;;;8.74;52.88
84224;BME280;74353;51.208;0.304;2024-03-06T09:45:50;101987.99;;;8.84;52.72
84224;BME280;74353;51.208;0.304;2024-03-06T09:48:14;101992.69;;;8.94;52.18
84224;BME280;74353;51.208;0.304;2024-03-06T09:50:43;101994.99;;;8.79;51.88
84224;BME280;74353;51.208;0.304;2024-03-06T09:53:10;101998.52;;;9.10;51.76
84224;BME280;74353;51.208;0.304;2024-03-06T09:55:35;101998.74;;;9.03;51.56
84224;BME280;74353;51.208;0.304;2024-03-06T09:58:01;102000.95;;;8.83;51.53
84224;BME280;74353;51.208;0.304;2024-03-06T10:00:27;102003.07;;;8.97;51.73
84224;BME280;74353;51.208;0.304;2024-03-06T10:02:57;102004.35;;;9.07;51.62
84224;BME280;74353;51.208;0.304;2024-03-06T10:05:21;102010.50;;;9.09;51.44
84224;BME280;74353;51.208;0.304;2024-03-06T10:07:47;102012.51;;;9.44;50.89
84224;BME280;74353;51.208;0.304;2024-03-06T10:10:15;102010.91;;;9.43;50.71
84224;BME280;74353;51.208;0.304;2024-03-06T10:12:42;102009.53;;;9.56;50.69
84224;BME280;74353;51.208;0.304;2024-03-06T10:15:09;102010.78;;;9.27;50.19
84224;BME280;74353;51.208;0.304;2024-03-06T10:17:35;102008.98;;;9.57;50.08
84224;BME280;74353;51.208;0.304;2024-03-06T10:20:00;102004.12;;;9.33;50.27
84224;BME280;74353;51.208;0.304;2024-03-06T10:22:27;101999.30;;;9.65;50.24
84224;BME280;74353;51.208;0.304;2024-03-06T10:24:55;101996.17;;;9.60;50.34
84224;BME280;74353;51.208;0.304;2024-03-06T10:27:23;101999.07;;;9.53;50.65
84224;BME280;74353;51.208;0.304;2024-03-06T10:32:19;102001.45;;;9.85;50.32
84224;BME280;74353;51.208;0.304;2024-03-06T10:34:45;102005.77;;;9.71;50.08
84224;BME280;74353;51.208;0.304;2024-03-06T10:37:11;102004.18;;;9.83;50.24
84224;BME280;74353;51.208;0.304;2024-03-06T10:39:41;102001.82;;;9.84;49.71
84224;BME280;74353;51.208;0.304;2024-03-06T10:42:03;102001.07;;;9.97;49.47
84224;BME280;74353;51.208;0.304;2024-03-06T10:44:28;102000.65;;;9.68;48.77
84224;BME280;74353;51.208;0.304;2024-03-06T10:46:57;102003.59;;;10.13;48.98
84224;BME280;74353;51.208;0.304;2024-03-06T10:49:22;102010.73;;;10.04;48.64
84224;BME280;74353;51.208;0.304;2024-03-06T10:51:46;102009.82;;;10.05;48.97
84224;BME280;74353;51.208;0.304;2024-03-06T10:54:15;102009.32;;;9.81;49.37
84224;BME280;74353;51.208;0.304;2024-03-06T10:56:41;102010.23;;;10.22;49.63
84224;BME280;74353;51.208;0.304;2024-03-06T10:59:10;102014.50;;;10.09;49.56
84224;BME280;74353;51.208;0.304;2024-03-06T11:01:36;102017.30;;;10.37;49.94
84224;BME280;74353;51.208;0.304;2024-03-06T11:04:04;102016.37;;;10.36;50.02
84224;BME280;74353;51.208;0.304;2024-03-06T11:06:28;102015.29;;;10.45;50.13
84224;BME280;74353;51.208;0.304;2024-03-06T11:08:54;102016.91;;;10.31;49.64
84224;BME280;74353;51.208;0.304;2024-03-06T11:11:23;102019.89;;;10.61;48.72
84224;BME280;74353;51.208;0.304;2024-03-06T11:13:50;102019.59;;;10.37;47.98
84224;BME280;74353;51.208;0.304;2024-03-06T11:16:17;102020.98;;;10.75;47.97
84224;BME280;74353;51.208;0.304;2024-03-06T11:18:43;102020.28;;;10.67;48.95
84224;BME280;74353;51.208;0.304;2024-03-06T11:26:03;102017.09;;;10.90;47.27
84224;BME280;74353;51.208;0.304;2024-03-06T11:28:29;102016.30;;;11.35;48.03
84224;BME280;74353;51.208;0.304;2024-03-06T11:30:57;102016.54;;;12.23;49.19
84224;BME280;74353;51.208;0.304;2024-03-06T11:33:22;102016.81;;;11.69;47.83
84224;BME280;74353;51.208;0.304;2024-03-06T11:38:17;102014.66;;;11.71;47.81
84224;BME280;74353;51.208;0.304;2024-03-06T11:40:43;102015.00;;;11.73;47.02
84224;BME280;74353;51.208;0.304;2024-03-06T11:48:02;102011.33;;;11.53;46.43
84224;BME280;74353;51.208;0.304;2024-03-06T11:50:26;102012.68;;;11.70;46.82
84224;BME280;74353;51.208;0.304;2024-03-06T11:52:52;102011.44;;;12.11;45.87
84224;BME280;74353;51.208;0.304;2024-03-06T11:55:16;102012.89;;;12.15;47.04
84224;BME280;74353;51.208;0.304;2024-03-06T11:57:42;102011.42;;;11.97;47.66
84224;BME280;74353;51.208;0.304;2024-03-06T12:00:09;102012.04;;;12.62;47.85
84224;BME280;74353;51.208;0.304;2024-03-06T12:02:36;102012.71;;;12.37;47.34
84224;BME280;74353;51.208;0.304;2024-03-06T12:05:01;102011.60;;;12.36;46.31
84224;BME280;74353;51.208;0.304;2024-03-06T12:07:24;102012.86;;;12.79;45.52
84224;BME280;74353;51.208;0.304;2024-03-06T12:09:52;102011.57;;;12.64;46.17
84224;BME280;74353;51.208;0.304;2024-03-06T12:12:17;102010.59;;;12.63;45.73
84224;BME280;74353;51.208;0.304;2024-03-06T12:14:42;102009.54;;;12.78;46.15
84224;BME280;74353;51.208;0.304;2024-03-06T12:17:13;102006.57;;;12.89;46.18
84224;BME280;74353;51.208;0.304;2024-03-06T12:19:36;102009.48;;;12.97;46.11
84224;BME280;74353;51.208;0.304;2024-03-06T12:22:04;102007.14;;;13.07;44.01
84224;BME280;74353;51.208;0.304;2024-03-06T12:24:29;102004.57;;;13.16;43.72
84224;BME280;74353;51.208;0.304;2024-03-06T12:27:00;102003.42;;;12.98;44.39
84224;BME280;74353;51.208;0.304;2024-03-06T12:29:21;102003.45;;;12.66;44.06
84224;BME280;74353;51.208;0.304;2024-03-06T12:31:46;102002.64;;;12.93;43.53
84224;BME280;74353;51.208;0.304;2024-03-06T12:34:15;102001.63;;;12.98;43.00
84224;BME280;74353;51.208;0.304;2024-03-06T12:36:41;102000.26;;;13.00;42.90
84224;BME280;74353;51.208;0.304;2024-03-06T12:39:09;102001.88;;;13.06;42.86
84224;BME280;74353;51.208;0.304;2024-03-06T12:41:35;102002.37;;;13.03;42.40
84224;BME280;74353;51.208;0.304;2024-03-06T12:44:03;102003.32;;;13.38;42.66
84224;BME280;74353;51.208;0.304;2024-03-06T12:46:30;102002.45;;;13.16;42.34
84224;BME280;74353;51.208;0.304;2024-03-06T12:48:55;102003.08;;;13.06;42.76
84224;BME280;74353;51.208;0.304;2024-03-06T12:51:22;101999.12;;;13.44;42.05
84224;BME280;74353;51.208;0.304;2024-03-06T12:53:47;101998.57;;;12.84;42.22
84224;BME280;74353;51.208;0.304;2024-03-06T12:56:13;102000.44;;;13.13;41.28
84224;BME280;74353;51.208;0.304;2024-03-06T12:58:39;101995.03;;;13.16;41.43
84224;BME280;74353;51.208;0.304;2024-03-06T13:01:07;101995.44;;;12.98;40.22
84224;BME280;74353;51.208;0.304;2024-03-06T13:03:35;101996.29;;;13.41;41.62
84224;BME280;74353;51.208;0.304;2024-03-06T13:06:03;101995.03;;;13.13;40.54